Time;durP1;ratioP1;P1;durP2;ratioP2;P2;SDS_P1;SDS_P2;PMS_P1;PMS_P2;Temp;Humidity;BMP_temperature;BMP_pressure;BME280_temperature;BME280_humidity;BME280_pressure;Samples;Min_cycle;Max_cycle;Signal;HPM_P1;HPM_P2
2023/04/02 00:01:40;;;;;;;;;;;;;;;19.43;39.72;99412.65;103632;1289;61356;-84
2023/04/02 00:04:10;;;;;;;;;;;;;;;19.43;39.74;99408.91;103654;1291;61841;-84
2023/04/02 00:06:43;;;;;;;;;;;;;;;19.43;39.69;99406.79;103767;1289;62771;-83
2023/04/02 00:09:12;;;;;;;;;;;;;;;19.42;39.74;99405.17;103919;1289;72618;-83
2023/04/02 00:11:38;;;;;;;;;;;;;;;19.42;39.75;99408.79;103995;1288;74490;-83
2023/04/02 00:14:04;;;;;;;;;;;;;;;19.42;39.69;99405.41;103780;1289;61494;-83
2023/04/02 00:16:31;;;;;;;;;;;;;;;19.42;39.71;99412.38;103703;1288;61393;-84
2023/04/02 00:18:58;;;;;;;;;;;;;;;19.42;39.69;99409.69;103560;1287;72251;-84
2023/04/02 00:21:25;;;;;;;;;;;;;;;19.42;39.68;99407.69;103584;1291;74346;-84
2023/04/02 00:23:55;;;;;;;;;;;;;;;19.42;39.64;99403.65;103542;1289;61388;-84
2023/04/02 00:26:28;;;;;;;;;;;;;;;19.41;39.75;99404.59;103588;1288;61311;-84
2023/04/02 00:28:53;;;;;;;;;;;;;;;19.41;39.70;99407.63;103702;1288;72536;-84
2023/04/02 00:31:19;;;;;;;;;;;;;;;19.41;39.68;99406.23;103605;1287;61358;-83
2023/04/02 00:33:44;;;;;;;;;;;;;;;19.41;39.83;99407.12;103714;1289;62528;-84
2023/04/02 00:36:10;;;;;;;;;;;;;;;19.41;39.72;99406.75;103634;1287;61491;-83
2023/04/02 00:38:35;;;;;;;;;;;;;;;19.41;39.79;99409.96;103787;1286;61848;-83
2023/04/02 00:41:01;;;;;;;;;;;;;;;19.41;39.91;99410.14;103684;1286;73984;-84
2023/04/02 00:43:27;;;;;;;;;;;;;;;19.41;39.84;99406.25;103606;1294;61484;-83
2023/04/02 00:45:54;;;;;;;;;;;;;;;19.40;39.74;99408.25;103753;1289;61393;-84
2023/04/02 00:48:25;;;;;;;;;;;;;;;19.40;39.76;99408.58;103592;1288;61482;-84
2023/04/02 00:50:53;;;;;;;;;;;;;;;19.40;39.81;99415.73;103424;1289;73157;-85
2023/04/02 00:53:26;;;;;;;;;;;;;;;19.40;39.82;99425.00;103769;1290;74320;-84
2023/04/02 00:55:52;;;;;;;;;;;;;;;19.40;39.87;99430.41;103631;1288;62377;-83
2023/04/02 00:58:28;;;;;;;;;;;;;;;19.40;39.67;99423.45;103667;1291;62522;-84
2023/04/02 01:00:55;;;;;;;;;;;;;;;19.39;39.93;99421.84;103707;1288;72449;-83
2023/04/02 01:03:27;;;;;;;;;;;;;;;19.39;39.77;99422.40;103566;1290;62568;-84
2023/04/02 01:06:00;;;;;;;;;;;;;;;19.39;39.77;99423.50;103721;1286;61366;-83
2023/04/02 01:08:30;;;;;;;;;;;;;;;19.39;39.82;99425.13;103732;1289;61654;-83
2023/04/02 01:11:23;;;;;;;;;;;;;;;19.39;39.72;99430.11;103734;1291;71553;-84
2023/04/02 01:14:02;;;;;;;;;;;;;;;19.39;39.74;99433.73;103192;1297;74676;-83
2023/04/02 01:16:35;;;;;;;;;;;;;;;19.39;39.75;99436.40;103288;1292;61370;-84
2023/04/02 01:19:08;;;;;;;;;;;;;;;19.38;39.76;99437.49;103162;1292;61492;-84
2023/04/02 01:21:41;;;;;;;;;;;;;;;19.38;39.79;99438.20;103145;1292;72432;-84
2023/04/02 01:24:07;;;;;;;;;;;;;;;19.38;39.75;99438.04;103164;1292;75499;-84
2023/04/02 01:26:39;;;;;;;;;;;;;;;19.38;39.74;99429.14;103247;1292;61349;-84
2023/04/02 01:29:09;;;;;;;;;;;;;;;19.38;39.89;99434.31;103258;1292;61421;-84
2023/04/02 01:31:35;;;;;;;;;;;;;;;19.38;39.74;99434.87;103154;1292;72360;-83
2023/04/02 01:34:01;;;;;;;;;;;;;;;19.38;39.83;99437.52;103110;1297;61995;-84
2023/04/02 01:36:26;;;;;;;;;;;;;;;19.37;39.78;99438.80;103090;1291;61321;-83
2023/04/02 01:38:58;;;;;;;;;;;;;;;19.37;39.78;99443.12;103282;1292;61841;-84
2023/04/02 01:41:26;;;;;;;;;;;;;;;19.37;39.80;99445.43;103225;1292;73386;-84
2023/04/02 01:43:53;;;;;;;;;;;;;;;19.37;39.89;99442.39;103164;1292;74506;-83
2023/04/02 01:46:25;;;;;;;;;;;;;;;19.37;39.88;99440.67;103217;1292;62242;-83
2023/04/02 01:48:52;;;;;;;;;;;;;;;19.36;39.82;99445.14;103175;1292;61465;-83
2023/04/02 01:51:29;;;;;;;;;;;;;;;19.37;39.79;99445.65;103361;1289;72311;-83
2023/04/02 01:53:55;;;;;;;;;;;;;;;19.36;39.76;99443.37;103593;1291;75271;-82
2023/04/02 01:56:21;;;;;;;;;;;;;;;19.36;39.89;99443.71;103524;1292;61353;-84
2023/04/02 01:58:48;;;;;;;;;;;;;;;19.36;39.79;99440.35;103531;1289;62349;-84
2023/04/02 02:01:23;;;;;;;;;;;;;;;19.36;39.88;99440.13;103463;1289;61391;-84
2023/04/02 02:04:12;;;;;;;;;;;;;;;19.36;39.86;99440.89;103438;1293;74326;-84
2023/04/02 02:06:38;;;;;;;;;;;;;;;19.36;39.96;99441.48;103254;1294;61318;-84
2023/04/02 02:09:04;;;;;;;;;;;;;;;19.36;39.91;99438.61;103231;1292;61884;-84
2023/04/02 02:11:30;;;;;;;;;;;;;;;19.36;39.93;99431.82;103103;1292;61507;-85
2023/04/02 02:13:56;;;;;;;;;;;;;;;19.36;39.81;99425.59;103227;1297;61394;-84
2023/04/02 02:16:22;;;;;;;;;;;;;;;19.35;39.83;99427.76;103225;1292;62241;-84
2023/04/02 02:18:53;;;;;;;;;;;;;;;19.35;39.94;99435.62;103168;1292;61636;-84
2023/04/02 02:21:30;;;;;;;;;;;;;;;19.35;40.01;99440.84;103259;1291;72560;-83
2023/04/02 02:23:57;;;;;;;;;;;;;;;19.35;40.02;99444.02;103242;1291;75346;-83
2023/04/02 02:26:22;;;;;;;;;;;;;;;19.35;39.84;99444.05;103111;1292;61470;-83
2023/04/02 02:28:48;;;;;;;;;;;;;;;19.35;39.85;99444.97;103347;1292;62423;-83
2023/04/02 02:31:31;;;;;;;;;;;;;;;19.34;39.76;99447.11;103570;1291;62559;-83
2023/04/02 02:33:59;;;;;;;;;;;;;;;19.34;39.86;99449.95;103179;1292;74393;-83
2023/04/02 02:36:32;;;;;;;;;;;;;;;19.34;39.82;99443.55;103267;1292;61275;-84
2023/04/02 02:39:05;;;;;;;;;;;;;;;19.34;39.82;99443.02;103257;1292;62195;-83
2023/04/02 02:41:34;;;;;;;;;;;;;;;19.34;39.93;99447.11;103296;1294;73472;-83
2023/04/02 02:44:26;;;;;;;;;;;;;;;19.34;39.97;99449.29;103365;1288;75415;-83
2023/04/02 02:46:53;;;;;;;;;;;;;;;19.34;39.84;99451.09;103207;1292;61359;-83
2023/04/02 02:49:39;;;;;;;;;;;;;;;19.34;39.99;99453.77;103151;1292;61957;-83
2023/04/02 02:52:07;;;;;;;;;;;;;;;19.34;39.88;99453.95;103265;1292;73434;-83
2023/04/02 02:54:37;;;;;;;;;;;;;;;19.34;39.94;99451.47;103264;1292;75559;-84
2023/04/02 02:57:03;;;;;;;;;;;;;;;19.33;39.90;99444.89;103209;1292;61339;-84
2023/04/02 02:59:29;;;;;;;;;;;;;;;19.34;39.97;99442.90;103166;1297;61422;-84
2023/04/02 03:01:54;;;;;;;;;;;;;;;19.33;39.82;99448.30;103223;1292;61330;-83
2023/04/02 03:04:21;;;;;;;;;;;;;;;19.33;39.95;99448.50;103161;1292;61377;-84
2023/04/02 03:06:48;;;;;;;;;;;;;;;19.33;39.90;99457.43;103239;1292;62754;-84
2023/04/02 03:09:32;;;;;;;;;;;;;;;19.32;39.96;99464.74;103259;1292;61426;-83
2023/04/02 03:12:16;;;;;;;;;;;;;;;19.32;39.77;99469.40;103262;1295;72342;-83
2023/04/02 03:14:43;;;;;;;;;;;;;;;19.32;39.98;99476.23;103222;1296;75436;-84
2023/04/02 03:17:10;;;;;;;;;;;;;;;19.32;39.90;99484.45;103177;1297;61496;-84
2023/04/02 03:20:00;;;;;;;;;;;;;;;19.32;39.89;99492.33;103326;1292;61381;-84
2023/04/02 03:22:31;;;;;;;;;;;;;;;19.32;39.82;99503.21;103178;1294;72469;-85
2023/04/02 03:24:56;;;;;;;;;;;;;;;19.32;39.90;99507.29;103489;1289;75468;-83
2023/04/02 03:27:26;;;;;;;;;;;;;;;19.31;40.04;99512.46;103435;1294;62458;-83
2023/04/02 03:30:10;;;;;;;;;;;;;;;19.31;39.84;99515.88;103504;1291;61340;-84
2023/04/02 03:32:36;;;;;;;;;;;;;;;19.32;39.86;99524.77;103619;1291;72613;-83
2023/04/02 03:35:08;;;;;;;;;;;;;;;19.31;39.92;99530.48;103581;1287;74859;-84
2023/04/02 03:37:35;;;;;;;;;;;;;;;19.31;39.86;99528.39;103530;1294;61364;-83
2023/04/02 03:40:06;;;;;;;;;;;;;;;19.31;39.91;99533.20;103522;1290;61363;-83
2023/04/02 03:42:36;;;;;;;;;;;;;;;19.31;40.05;99534.11;103602;1289;72475;-84
2023/04/02 03:45:02;;;;;;;;;;;;;;;19.31;40.03;99536.59;103479;1294;74280;-84
2023/04/02 03:47:34;;;;;;;;;;;;;;;19.31;39.87;99542.88;103595;1291;61288;-84
2023/04/02 03:50:02;;;;;;;;;;;;;;;19.30;39.81;99548.61;103516;1289;61386;-84
2023/04/02 03:52:28;;;;;;;;;;;;;;;19.30;39.88;99547.73;103570;1286;72359;-84
2023/04/02 03:54:58;;;;;;;;;;;;;;;19.30;39.98;99551.29;103618;1286;61377;-84
2023/04/02 03:57:33;;;;;;;;;;;;;;;19.30;39.90;99555.77;103759;1289;61217;-85
2023/04/02 04:00:04;;;;;;;;;;;;;;;19.30;40.08;99561.66;103657;1289;61372;-84
2023/04/02 04:02:43;;;;;;;;;;;;;;;19.30;39.93;99567.93;103667;1288;73326;-83
2023/04/02 04:05:38;;;;;;;;;;;;;;;19.30;39.90;99573.80;103634;1291;74367;-84
2023/04/02 04:08:05;;;;;;;;;;;;;;;19.29;40.00;99577.45;103609;1286;61304;-84
2023/04/02 04:10:31;;;;;;;;;;;;;;;19.29;39.97;99578.14;103567;1289;61347;-83
2023/04/02 04:13:05;;;;;;;;;;;;;;;19.29;39.96;99582.61;103549;1291;62651;-85
2023/04/02 04:15:40;;;;;;;;;;;;;;;19.29;39.94;99582.05;103589;1289;74105;-83
2023/04/02 04:18:11;;;;;;;;;;;;;;;19.29;39.97;99589.22;103506;1293;61614;-83
2023/04/02 04:20:46;;;;;;;;;;;;;;;19.29;39.97;99590.43;103716;1286;61417;-84
2023/04/02 04:23:39;;;;;;;;;;;;;;;19.29;40.03;99593.67;103682;1286;72452;-84
2023/04/02 04:26:18;;;;;;;;;;;;;;;19.29;40.06;99597.77;103710;1286;74489;-83
2023/04/02 04:29:04;;;;;;;;;;;;;;;19.29;40.05;99599.02;103659;1291;61276;-84
2023/04/02 04:31:35;;;;;;;;;;;;;;;19.29;40.04;99600.09;103639;1291;61330;-85
2023/04/02 04:34:04;;;;;;;;;;;;;;;19.29;40.00;99606.68;103658;1291;72473;-84
2023/04/02 04:36:34;;;;;;;;;;;;;;;19.28;40.09;99606.91;103423;1292;75487;-84
2023/04/02 04:39:04;;;;;;;;;;;;;;;19.29;39.94;99613.84;103646;1287;61388;-84
2023/04/02 04:41:35;;;;;;;;;;;;;;;19.29;40.01;99618.84;103755;1286;62354;-84
2023/04/02 04:44:05;;;;;;;;;;;;;;;19.29;39.99;99619.39;103813;1288;73682;-84
2023/04/02 04:46:41;;;;;;;;;;;;;;;19.28;40.12;99620.31;103812;1286;75824;-84
2023/04/02 04:49:07;;;;;;;;;;;;;;;19.29;39.94;99617.60;103773;1292;61482;-83
2023/04/02 04:51:49;;;;;;;;;;;;;;;19.28;39.93;99620.14;103965;1289;61374;-83
2023/04/02 04:54:15;;;;;;;;;;;;;;;19.29;40.01;99627.58;104054;1292;72511;-82
2023/04/02 04:56:43;;;;;;;;;;;;;;;19.28;40.07;99631.16;103753;1292;61768;-83
2023/04/02 04:59:23;;;;;;;;;;;;;;;19.29;39.97;99632.96;103772;1292;62116;-85
2023/04/02 05:02:04;;;;;;;;;;;;;;;19.29;40.09;99637.21;103774;1286;62190;-84
2023/04/02 05:04:34;;;;;;;;;;;;;;;19.29;40.06;99638.81;103828;1286;72496;-83
2023/04/02 05:07:13;;;;;;;;;;;;;;;19.29;39.98;99644.37;103775;1291;74452;-84
2023/04/02 05:09:43;;;;;;;;;;;;;;;19.29;40.03;99646.14;103741;1286;61337;-84
2023/04/02 05:12:41;;;;;;;;;;;;;;;19.28;39.92;99649.41;103762;1286;61373;-84
2023/04/02 05:15:32;;;;;;;;;;;;;;;19.29;40.01;99659.69;103211;1295;72649;-83
2023/04/02 05:18:13;;;;;;;;;;;;;;;19.29;40.15;99662.55;103149;1292;75836;-84
2023/04/02 05:20:47;;;;;;;;;;;;;;;19.28;40.05;99671.48;103200;1294;61314;-83
2023/04/02 05:23:20;;;;;;;;;;;;;;;19.29;40.19;99678.77;103290;1294;61424;-84
2023/04/02 05:25:53;;;;;;;;;;;;;;;19.29;40.25;99681.61;103208;1296;73415;-85
2023/04/02 05:28:18;;;;;;;;;;;;;;;19.29;40.08;99690.89;103187;1291;74368;-82
2023/04/02 05:30:51;;;;;;;;;;;;;;;19.29;40.09;99695.88;103190;1292;61410;-84
2023/04/02 05:33:20;;;;;;;;;;;;;;;19.30;40.10;99700.45;103274;1292;61298;-83
2023/04/02 05:35:46;;;;;;;;;;;;;;;19.29;40.12;99705.30;103241;1291;72460;-83
2023/04/02 05:38:25;;;;;;;;;;;;;;;19.29;40.16;99704.77;103151;1296;61573;-84
2023/04/02 05:40:54;;;;;;;;;;;;;;;19.30;40.17;99703.51;103241;1294;61581;-83
2023/04/02 05:43:21;;;;;;;;;;;;;;;19.29;40.13;99706.23;103275;1292;61419;-85
2023/04/02 05:45:51;;;;;;;;;;;;;;;19.29;40.16;99707.30;103175;1296;61388;-84
2023/04/02 05:48:18;;;;;;;;;;;;;;;19.29;40.07;99717.13;103188;1293;75384;-85
2023/04/02 05:50:45;;;;;;;;;;;;;;;19.29;40.02;99718.92;103324;1292;61273;-84
2023/04/02 05:53:30;;;;;;;;;;;;;;;19.29;40.12;99723.73;103707;1286;61295;-85
2023/04/02 05:55:57;;;;;;;;;;;;;;;19.29;40.03;99723.56;103708;1291;72578;-84
2023/04/02 05:58:30;;;;;;;;;;;;;;;19.29;40.19;99725.69;103757;1291;74370;-84
2023/04/02 06:01:06;;;;;;;;;;;;;;;19.28;40.20;99731.45;103729;1291;61637;-85
2023/04/02 06:03:43;;;;;;;;;;;;;;;19.28;40.16;99734.30;103727;1286;61388;-84
2023/04/02 06:06:13;;;;;;;;;;;;;;;19.28;40.08;99736.11;103753;1286;73282;-84
2023/04/02 06:08:40;;;;;;;;;;;;;;;19.27;40.14;99742.58;103774;1291;74528;-83
2023/04/02 06:11:10;;;;;;;;;;;;;;;19.28;39.96;99745.05;103817;1289;62003;-84
2023/04/02 06:13:36;;;;;;;;;;;;;;;19.27;40.13;99746.70;103799;1289;61387;-85
2023/04/02 06:16:02;;;;;;;;;;;;;;;19.27;40.13;99750.43;103711;1286;61409;-84
2023/04/02 06:18:30;;;;;;;;;;;;;;;19.27;40.04;99754.37;103861;1288;61360;-84
2023/04/02 06:20:55;;;;;;;;;;;;;;;19.27;40.05;99759.71;103831;1285;61404;-84
2023/04/02 06:23:24;;;;;;;;;;;;;;;19.27;39.98;99765.63;103723;1292;61487;-85
2023/04/02 06:26:00;;;;;;;;;;;;;;;19.26;40.15;99765.45;103771;1286;72548;-84
2023/04/02 06:28:28;;;;;;;;;;;;;;;19.26;40.10;99767.07;103742;1291;75396;-84
2023/04/02 06:30:55;;;;;;;;;;;;;;;19.26;40.10;99766.73;103721;1285;61270;-83
2023/04/02 06:33:22;;;;;;;;;;;;;;;19.26;40.08;99765.85;103677;1289;61398;-83
2023/04/02 06:35:49;;;;;;;;;;;;;;;19.26;40.21;99766.39;103741;1290;71326;-84
2023/04/02 06:38:20;;;;;;;;;;;;;;;19.26;40.11;99769.06;103816;1287;75442;-84
2023/04/02 06:40:45;;;;;;;;;;;;;;;19.26;39.97;99767.65;103792;1286;61384;-84
2023/04/02 06:43:15;;;;;;;;;;;;;;;19.26;40.16;99770.83;103923;1289;61505;-83
2023/04/02 06:45:41;;;;;;;;;;;;;;;19.26;40.09;99779.24;103734;1287;72289;-83
2023/04/02 06:48:08;;;;;;;;;;;;;;;19.26;40.04;99783.52;103808;1292;62429;-84
2023/04/02 06:50:45;;;;;;;;;;;;;;;19.26;40.12;99786.91;103693;1289;61368;-84
2023/04/02 06:53:35;;;;;;;;;;;;;;;19.25;40.04;99787.88;103784;1292;61359;-84
2023/04/02 06:56:03;;;;;;;;;;;;;;;19.25;39.96;99791.05;103569;1295;72608;-83
2023/04/02 06:58:29;;;;;;;;;;;;;;;19.25;40.03;99789.60;103613;1289;74926;-83
2023/04/02 07:00:55;;;;;;;;;;;;;;;19.25;40.13;99793.52;103530;1286;61285;-85
2023/04/02 07:03:31;;;;;;;;;;;;;;;19.25;39.99;99797.64;103725;1286;61390;-83
2023/04/02 07:05:56;;;;;;;;;;;;;;;19.25;40.10;99797.31;103174;1291;770156;-83
2023/04/02 07:08:22;;;;;;;;;;;;;;;19.25;39.98;99798.05;103713;1291;61375;-84
2023/04/02 07:10:48;;;;;;;;;;;;;;;19.25;39.96;99806.09;103814;1286;61409;-83
2023/04/02 07:13:14;;;;;;;;;;;;;;;19.25;40.08;99805.90;103948;1286;62117;-83
2023/04/02 07:15:39;;;;;;;;;;;;;;;19.24;40.16;99803.60;103935;1291;61324;-83
2023/04/02 07:18:05;;;;;;;;;;;;;;;19.24;40.05;99808.79;103599;1291;62490;-84
2023/04/02 07:20:36;;;;;;;;;;;;;;;19.24;39.93;99807.89;103617;1286;75165;-83
2023/04/02 07:23:02;;;;;;;;;;;;;;;19.24;40.08;99810.77;103573;1290;61406;-84
2023/04/02 07:25:28;;;;;;;;;;;;;;;19.25;40.06;99814.45;103816;1292;61390;-84
2023/04/02 07:27:54;;;;;;;;;;;;;;;19.24;40.02;99812.91;103672;1292;61311;-84
2023/04/02 07:30:19;;;;;;;;;;;;;;;19.24;40.04;99811.52;103717;1291;61360;-84
2023/04/02 07:32:45;;;;;;;;;;;;;;;19.23;39.91;99814.04;103805;1286;61403;-83
2023/04/02 07:35:10;;;;;;;;;;;;;;;19.23;40.03;99816.03;103644;1286;61523;-84
2023/04/02 07:37:37;;;;;;;;;;;;;;;19.23;40.01;99816.20;103743;1291;61675;-83
2023/04/02 07:40:10;;;;;;;;;;;;;;;19.23;40.06;99819.61;103631;1286;73292;-84
2023/04/02 07:42:36;;;;;;;;;;;;;;;19.23;39.99;99814.99;103695;1286;74300;-85
2023/04/02 07:45:01;;;;;;;;;;;;;;;19.22;39.98;99818.42;103626;1291;61480;-84
2023/04/02 07:47:28;;;;;;;;;;;;;;;19.22;40.11;99823.41;103638;1286;62485;-84
2023/04/02 07:49:53;;;;;;;;;;;;;;;19.22;40.08;99826.98;103800;1286;61541;-84
2023/04/02 07:52:20;;;;;;;;;;;;;;;19.22;39.97;99827.55;103784;1286;61423;-83
2023/04/02 07:54:46;;;;;;;;;;;;;;;19.22;39.88;99830.41;103813;1289;61275;-84
2023/04/02 07:57:12;;;;;;;;;;;;;;;19.22;40.04;99833.45;103660;1286;61425;-84
2023/04/02 07:59:38;;;;;;;;;;;;;;;19.22;39.98;99839.50;103846;1286;61282;-83
2023/04/02 08:02:04;;;;;;;;;;;;;;;19.22;39.92;99839.52;103728;1286;72686;-84
2023/04/02 08:04:30;;;;;;;;;;;;;;;19.22;40.06;99837.02;103724;1291;73498;-84
2023/04/02 08:06:56;;;;;;;;;;;;;;;19.21;39.99;99835.98;103684;1292;62514;-83
2023/04/02 08:09:21;;;;;;;;;;;;;;;19.21;40.06;99839.70;103827;1289;61345;-84
2023/04/02 08:11:47;;;;;;;;;;;;;;;19.21;40.11;99843.29;103755;1286;61383;-83
2023/04/02 08:14:13;;;;;;;;;;;;;;;19.21;40.08;99844.91;103772;1286;62208;-85
2023/04/02 08:16:49;;;;;;;;;;;;;;;19.21;39.87;99850.63;103866;1289;61370;-84
2023/04/02 08:19:15;;;;;;;;;;;;;;;19.21;39.94;99850.98;103773;1286;61349;-83
2023/04/02 08:21:40;;;;;;;;;;;;;;;19.21;39.90;99850.44;103733;1290;61306;-82
2023/04/02 08:24:06;;;;;;;;;;;;;;;19.21;40.06;99853.69;103780;1291;61400;-84
2023/04/02 08:26:32;;;;;;;;;;;;;;;19.21;40.04;99855.84;103816;1291;61455;-83
2023/04/02 08:28:57;;;;;;;;;;;;;;;19.20;40.01;99860.30;103823;1286;61937;-83
2023/04/02 08:31:23;;;;;;;;;;;;;;;19.21;39.99;99862.96;103709;1286;61797;-83
2023/04/02 08:33:57;;;;;;;;;;;;;;;19.20;39.95;99862.84;103693;1291;61269;-83
2023/04/02 08:36:32;;;;;;;;;;;;;;;19.20;40.02;99863.36;103741;1286;72502;-84
2023/04/02 08:38:58;;;;;;;;;;;;;;;19.20;39.97;99868.33;103727;1286;73886;-83
2023/04/02 08:41:27;;;;;;;;;;;;;;;19.20;40.01;99869.23;103826;1289;61285;-84
2023/04/02 08:44:02;;;;;;;;;;;;;;;19.20;40.14;99870.48;103769;1286;61323;-83
2023/04/02 08:46:47;;;;;;;;;;;;;;;19.20;39.88;99872.27;103706;1286;72130;-84
2023/04/02 08:49:14;;;;;;;;;;;;;;;19.20;40.04;99875.13;103841;1286;75637;-84
2023/04/02 08:51:40;;;;;;;;;;;;;;;19.20;40.03;99873.88;103723;1286;61410;-83
2023/04/02 08:54:16;;;;;;;;;;;;;;;19.20;40.11;99879.58;103736;1286;61343;-83
2023/04/02 08:57:05;;;;;;;;;;;;;;;19.20;40.02;99881.55;103764;1290;73336;-84
2023/04/02 08:59:32;;;;;;;;;;;;;;;19.20;40.08;99888.31;103744;1286;74374;-84
2023/04/02 09:02:09;;;;;;;;;;;;;;;19.20;39.94;99890.85;103779;1286;61301;-83
2023/04/02 09:04:35;;;;;;;;;;;;;;;19.20;40.09;99899.59;103705;1286;61381;-84
2023/04/02 09:07:02;;;;;;;;;;;;;;;19.20;40.06;99897.80;103747;1286;61340;-84
2023/04/02 09:09:27;;;;;;;;;;;;;;;19.19;40.01;99901.25;103715;1286;61381;-83
2023/04/02 09:12:03;;;;;;;;;;;;;;;19.20;39.97;99906.04;103847;1286;62449;-84
2023/04/02 09:14:34;;;;;;;;;;;;;;;19.20;40.12;99906.56;104140;1286;62281;-81
2023/04/02 09:17:03;;;;;;;;;;;;;;;19.19;40.21;99905.34;104122;1286;72513;-82
2023/04/02 09:19:32;;;;;;;;;;;;;;;19.19;40.02;99906.39;103985;1286;73634;-82
2023/04/02 09:22:01;;;;;;;;;;;;;;;19.20;40.09;99910.48;103790;1291;62548;-84
2023/04/02 09:24:26;;;;;;;;;;;;;;;19.20;40.16;99911.17;103757;1285;62072;-84
2023/04/02 09:26:52;;;;;;;;;;;;;;;19.20;40.13;99910.29;103740;1292;61397;-83
2023/04/02 09:29:25;;;;;;;;;;;;;;;19.20;40.11;99914.75;104208;1286;75396;-82
2023/04/02 09:32:17;;;;;;;;;;;;;;;19.20;40.16;99912.79;103896;1286;61670;-82
2023/04/02 09:34:42;;;;;;;;;;;;;;;19.20;40.13;99916.69;104093;1291;61455;-82
2023/04/02 09:37:18;;;;;;;;;;;;;;;19.20;40.01;99917.02;104213;1286;62564;-83
2023/04/02 09:39:43;;;;;;;;;;;;;;;19.20;40.12;99917.56;103860;1286;75349;-83
2023/04/02 09:42:29;;;;;;;;;;;;;;;19.20;40.15;99917.39;103800;1286;61328;-84
2023/04/02 09:45:11;;;;;;;;;;;;;;;19.20;40.29;99920.77;103742;1286;61499;-83
2023/04/02 09:47:36;;;;;;;;;;;;;;;19.20;40.10;99918.11;103711;1286;73266;-84
2023/04/02 09:50:25;;;;;;;;;;;;;;;19.20;40.16;99918.27;103615;1288;61448;-84
2023/04/02 09:52:51;;;;;;;;;;;;;;;19.21;40.13;99919.86;103821;1289;61259;-83
2023/04/02 09:55:25;;;;;;;;;;;;;;;19.20;40.10;99924.52;103716;1289;61444;-84
2023/04/02 09:57:50;;;;;;;;;;;;;;;19.21;40.12;99926.64;103821;1289;72295;-84
2023/04/02 10:00:24;;;;;;;;;;;;;;;19.20;40.23;99927.05;103648;1290;61462;-84
2023/04/02 10:03:02;;;;;;;;;;;;;;;19.20;40.21;99926.86;103763;1287;61308;-84
2023/04/02 10:05:30;;;;;;;;;;;;;;;19.20;40.18;99928.14;103769;1286;61385;-84
2023/04/02 10:08:04;;;;;;;;;;;;;;;19.20;40.09;99931.15;103769;1286;62422;-84
2023/04/02 10:10:37;;;;;;;;;;;;;;;19.19;40.14;99936.52;103755;1286;76709;-83
2023/04/02 10:13:05;;;;;;;;;;;;;;;19.19;40.13;99940.10;103805;1286;61282;-83
2023/04/02 10:15:33;;;;;;;;;;;;;;;19.20;40.19;99942.05;103815;1286;62633;-83
2023/04/02 10:18:20;;;;;;;;;;;;;;;19.19;40.04;99941.55;103738;1286;72022;-84
2023/04/02 10:20:46;;;;;;;;;;;;;;;19.19;40.27;99940.63;103810;1286;74347;-83
2023/04/02 10:23:16;;;;;;;;;;;;;;;19.19;40.20;99943.32;103709;1286;61467;-84
2023/04/02 10:25:54;;;;;;;;;;;;;;;19.19;40.19;99941.39;103883;1286;62666;-84
2023/04/02 10:28:43;;;;;;;;;;;;;;;19.19;40.14;99941.54;103735;1285;72390;-83
2023/04/02 10:31:21;;;;;;;;;;;;;;;19.19;40.14;99945.15;103705;1286;74825;-84
2023/04/02 10:33:50;;;;;;;;;;;;;;;19.20;40.15;99946.70;103762;1285;61298;-84
2023/04/02 10:36:20;;;;;;;;;;;;;;;19.19;40.37;99949.95;103783;1286;61406;-84
2023/04/02 10:38:50;;;;;;;;;;;;;;;19.19;40.25;99946.89;103741;1286;72540;-84
2023/04/02 10:41:30;;;;;;;;;;;;;;;19.19;40.27;99946.89;103841;1286;74279;-83
2023/04/02 10:44:25;;;;;;;;;;;;;;;19.19;40.22;99948.50;103747;1286;62652;-83
2023/04/02 10:47:11;;;;;;;;;;;;;;;19.19;40.25;99949.21;103192;1293;61484;-84
2023/04/02 10:49:40;;;;;;;;;;;;;;;19.19;40.31;99944.58;103486;1286;71442;-84
2023/04/02 10:52:06;;;;;;;;;;;;;;;19.19;40.11;99946.71;103722;1286;75330;-84
2023/04/02 10:54:44;;;;;;;;;;;;;;;19.19;40.42;99945.48;103781;1286;61320;-83
2023/04/02 10:57:25;;;;;;;;;;;;;;;19.19;40.16;99947.08;103730;1286;61652;-84
2023/04/02 10:59:53;;;;;;;;;;;;;;;19.19;40.30;99944.20;103796;1285;72541;-83
2023/04/02 11:02:41;;;;;;;;;;;;;;;19.19;40.24;99943.54;103770;1287;75275;-84
2023/04/02 11:05:16;;;;;;;;;;;;;;;19.20;40.21;99947.77;103787;1286;61480;-84
2023/04/02 11:07:45;;;;;;;;;;;;;;;19.19;40.37;99952.95;103718;1286;61375;-83
2023/04/02 11:10:13;;;;;;;;;;;;;;;19.19;40.34;99951.91;103783;1286;73351;-83
2023/04/02 11:12:40;;;;;;;;;;;;;;;19.19;40.26;99956.36;103775;1286;76213;-84
2023/04/02 11:15:12;;;;;;;;;;;;;;;19.19;40.32;99957.25;103790;1286;61315;-84
2023/04/02 11:17:38;;;;;;;;;;;;;;;19.19;40.40;99956.73;103734;1286;61340;-83
2023/04/02 11:20:33;;;;;;;;;;;;;;;19.19;40.47;99953.16;103783;1289;71764;-84
2023/04/02 11:23:08;;;;;;;;;;;;;;;19.19;40.42;99956.55;103774;1291;74438;-84
2023/04/02 11:25:36;;;;;;;;;;;;;;;19.19;40.36;99962.60;103675;1286;61512;-84
2023/04/02 11:28:12;;;;;;;;;;;;;;;19.19;40.49;99961.73;103654;1286;61371;-83
2023/04/02 11:30:38;;;;;;;;;;;;;;;19.19;40.40;99967.40;103765;1286;72581;-84
2023/04/02 11:33:24;;;;;;;;;;;;;;;19.19;40.44;99969.55;103767;1286;61409;-84
2023/04/02 11:35:50;;;;;;;;;;;;;;;19.19;40.39;99973.48;103777;1286;61289;-83
2023/04/02 11:38:41;;;;;;;;;;;;;;;19.19;40.43;99975.25;103773;1286;61304;-83
2023/04/02 11:41:07;;;;;;;;;;;;;;;19.20;40.44;99972.02;103149;1295;72532;-84
2023/04/02 11:43:53;;;;;;;;;;;;;;;19.19;40.54;99968.09;103039;1294;62555;-84
2023/04/02 11:46:18;;;;;;;;;;;;;;;19.20;40.53;99964.36;102667;1300;61291;-83
2023/04/02 11:48:44;;;;;;;;;;;;;;;19.19;40.53;99961.50;102560;1301;61424;-82
2023/04/02 11:51:21;;;;;;;;;;;;;;;19.19;40.42;99962.60;102640;1300;61691;-84
2023/04/02 11:53:51;;;;;;;;;;;;;;;19.20;40.37;99963.80;102682;1299;75598;-84
2023/04/02 11:56:18;;;;;;;;;;;;;;;19.20;40.47;99965.41;102980;1299;61336;-84
2023/04/02 11:58:46;;;;;;;;;;;;;;;19.20;40.39;99961.47;103024;1300;61405;-84
2023/04/02 12:01:23;;;;;;;;;;;;;;;19.20;40.49;99959.35;102677;1303;73475;-83
2023/04/02 12:04:08;;;;;;;;;;;;;;;19.20;40.46;99959.33;102743;1303;74356;-84
2023/04/02 12:06:41;;;;;;;;;;;;;;;19.20;40.59;99956.65;102578;1300;61467;-83
2023/04/02 12:09:17;;;;;;;;;;;;;;;19.20;40.51;99954.53;102696;1301;61765;-84
2023/04/02 12:11:43;;;;;;;;;;;;;;;19.21;40.50;99954.30;102776;1303;73647;-84
2023/04/02 12:14:27;;;;;;;;;;;;;;;19.20;40.65;99952.15;102667;1300;61451;-83
2023/04/02 12:16:53;;;;;;;;;;;;;;;19.21;40.63;99951.43;102738;1300;61358;-83
2023/04/02 12:19:19;;;;;;;;;;;;;;;19.21;40.59;99949.65;103023;1294;61316;-83
2023/04/02 12:21:46;;;;;;;;;;;;;;;19.21;40.53;99943.74;103110;1294;61567;-84
2023/04/02 12:24:16;;;;;;;;;;;;;;;19.22;40.50;99940.10;103657;1291;61990;-83
2023/04/02 12:26:45;;;;;;;;;;;;;;;19.22;40.62;99933.48;103837;1286;61950;-84
2023/04/02 12:29:14;;;;;;;;;;;;;;;19.23;40.47;99932.55;103844;1286;61381;-84
2023/04/02 12:31:43;;;;;;;;;;;;;;;19.23;40.57;99933.20;103802;1286;72574;-84
2023/04/02 12:34:14;;;;;;;;;;;;;;;19.24;40.60;99936.00;103716;1291;74412;-84
2023/04/02 12:36:40;;;;;;;;;;;;;;;19.25;40.56;99934.13;103714;1286;61326;-84
2023/04/02 12:39:12;;;;;;;;;;;;;;;19.26;40.58;99935.16;103655;1289;61322;-84
2023/04/02 12:41:38;;;;;;;;;;;;;;;19.26;40.53;99937.25;103950;1286;72473;-84
2023/04/02 12:44:33;;;;;;;;;;;;;;;19.28;40.46;99938.09;103839;1286;61499;-84
2023/04/02 12:46:58;;;;;;;;;;;;;;;19.28;40.49;99936.42;103301;1295;61436;-84
2023/04/02 12:49:26;;;;;;;;;;;;;;;19.29;40.62;99937.09;103176;1295;61388;-83
2023/04/02 12:51:52;;;;;;;;;;;;;;;19.30;40.46;99938.25;103219;1292;72491;-83
2023/04/02 12:54:19;;;;;;;;;;;;;;;19.30;40.57;99934.45;103119;1294;61468;-84
2023/04/02 12:56:46;;;;;;;;;;;;;;;19.31;40.58;99933.71;103110;1298;61486;-84